createdAt,value
2022-09-18T00:01:41.582Z,9.30
2022-09-18T00:04:14.269Z,10.60
2022-09-18T00:06:45.076Z,9.90
2022-09-18T00:09:16.110Z,9.40
2022-09-18T00:11:49.407Z,9.40
2022-09-18T00:14:22.900Z,10.30
2022-09-18T00:16:51.409Z,13.50
2022-09-18T00:19:20.935Z,14.00
2022-09-18T00:21:51.866Z,10.90
2022-09-18T00:24:22.352Z,11.60
2022-09-18T00:26:51.273Z,12.60
2022-09-18T00:29:19.802Z,10.40
2022-09-18T00:31:48.737Z,9.10
2022-09-18T00:34:17.197Z,9.80
2022-09-18T00:36:45.838Z,10.20
2022-09-18T00:39:14.750Z,10.20
2022-09-18T00:41:46.624Z,9.90
2022-09-18T00:44:48.026Z,10.90
2022-09-18T00:47:20.590Z,8.70
2022-09-18T00:50:04.209Z,7.30
2022-09-18T00:52:57.012Z,7.90
2022-09-18T00:58:03.156Z,9.50
2022-09-18T01:00:32.713Z,6.90
2022-09-18T01:03:01.537Z,7.20
2022-09-18T01:05:57.593Z,7.70
2022-09-18T01:08:41.892Z,7.50
2022-09-18T01:11:30.679Z,8.10
2022-09-18T01:14:23.777Z,7.40
2022-09-18T01:17:26.423Z,7.10
2022-09-18T01:20:22.256Z,7.70
2022-09-18T01:23:18.552Z,9.50
2022-09-18T01:25:50.122Z,9.50
2022-09-18T01:28:39.862Z,6.60
2022-09-18T01:31:34.345Z,6.60
2022-09-18T01:34:17.572Z,6.00
2022-09-18T01:36:52.562Z,7.70
2022-09-18T01:39:56.224Z,6.10
2022-09-18T01:42:29.770Z,8.10
2022-09-18T01:45:02.600Z,7.20
2022-09-18T01:47:39.377Z,7.10
2022-09-18T01:50:10.651Z,7.10
2022-09-18T01:53:09.471Z,7.90
2022-09-18T01:55:40.981Z,6.70
2022-09-18T02:00:52.289Z,6.30
2022-09-18T02:03:30.044Z,9.10
2022-09-18T02:06:09.969Z,6.00
2022-09-18T02:08:54.844Z,6.50
2022-09-18T02:11:25.042Z,6.70
2022-09-18T02:14:06.451Z,6.00
2022-09-18T02:17:10.809Z,5.10
2022-09-18T02:19:51.819Z,7.20
2022-09-18T02:22:24.684Z,4.60
2022-09-18T02:24:57.604Z,9.60
2022-09-18T02:27:27.109Z,5.90
2022-09-18T02:30:01.857Z,6.10
2022-09-18T02:32:31.479Z,9.10
2022-09-18T02:34:59.889Z,4.30
2022-09-18T02:38:22.961Z,5.70
2022-09-18T02:41:19.834Z,4.10
2022-09-18T02:43:58.938Z,5.20
2022-09-18T02:47:06.846Z,5.90
2022-09-18T02:49:53.090Z,4.10
2022-09-18T02:52:31.855Z,5.20
2022-09-18T02:55:18.623Z,5.00
2022-09-18T02:58:02.433Z,5.30
2022-09-18T03:00:32.428Z,5.10
2022-09-18T03:03:03.152Z,7.30
2022-09-18T03:05:36.393Z,5.50
2022-09-18T03:08:04.951Z,5.80
2022-09-18T03:10:33.359Z,5.40
2022-09-18T03:13:01.900Z,5.30
2022-09-18T03:15:30.333Z,5.40
2022-09-18T03:17:58.851Z,4.90
2022-09-18T03:20:27.327Z,5.50
2022-09-18T03:22:55.765Z,6.30
2022-09-18T03:25:24.909Z,5.60
2022-09-18T03:27:56.657Z,6.30
2022-09-18T03:30:33.322Z,4.70
2022-09-18T03:33:02.986Z,5.20
2022-09-18T03:35:32.771Z,3.10
2022-09-18T03:38:01.476Z,8.80
2022-09-18T03:40:32.172Z,4.40
2022-09-18T03:43:05.357Z,3.50
2022-09-18T03:45:33.927Z,4.70
2022-09-18T03:48:04.237Z,3.60
2022-09-18T03:50:33.054Z,3.20
2022-09-18T03:53:02.346Z,3.00
2022-09-18T03:55:38.582Z,2.80
2022-09-18T03:58:25.487Z,3.20
2022-09-18T04:01:13.830Z,3.60
2022-09-18T04:04:10.995Z,3.20
2022-09-18T04:07:22.896Z,3.30
2022-09-18T04:10:27.205Z,4.20
2022-09-18T04:12:55.531Z,3.50
2022-09-18T04:15:31.654Z,3.90
2022-09-18T04:18:00.417Z,4.10
2022-09-18T04:20:29.024Z,2.40
2022-09-18T04:22:59.336Z,3.10
2022-09-18T04:25:28.103Z,2.60
2022-09-18T04:27:57.671Z,3.20
2022-09-18T04:30:26.163Z,3.50
2022-09-18T04:32:54.795Z,4.80
2022-09-18T04:35:24.286Z,5.00
2022-09-18T04:37:52.807Z,3.90
2022-09-18T04:40:21.324Z,4.40
2022-09-18T04:42:49.798Z,3.70
2022-09-18T04:45:18.151Z,3.90
2022-09-18T04:47:47.862Z,2.90
2022-09-18T04:50:17.271Z,3.80
2022-09-18T04:53:04.043Z,4.40
2022-09-18T04:55:34.230Z,4.80
2022-09-18T04:58:02.778Z,3.90
2022-09-18T05:00:32.356Z,3.70
2022-09-18T05:03:01.754Z,4.10
2022-09-18T05:05:31.442Z,4.00
2022-09-18T05:08:02.105Z,6.20
2022-09-18T05:10:30.875Z,4.80
2022-09-18T05:12:59.424Z,4.40
2022-09-18T05:15:28.197Z,4.60
2022-09-18T05:18:01.813Z,5.90
2022-09-18T05:20:31.496Z,4.60
2022-09-18T05:23:05.196Z,4.10
2022-09-18T05:25:33.666Z,5.30
2022-09-18T05:28:04.251Z,4.80
2022-09-18T05:30:40.867Z,4.20
2022-09-18T05:33:11.292Z,5.30
2022-09-18T05:35:43.395Z,5.70
2022-09-18T05:38:12.104Z,6.00
2022-09-18T05:43:12.463Z,3.90
2022-09-18T05:45:41.291Z,4.70
2022-09-18T05:48:17.125Z,5.80
2022-09-18T05:50:45.979Z,4.30
2022-09-18T05:53:19.261Z,6.30
2022-09-18T05:56:05.929Z,5.20
2022-09-18T05:58:37.768Z,6.30
2022-09-18T06:01:06.391Z,3.90
2022-09-18T06:03:51.639Z,3.90
2022-09-18T06:06:20.639Z,6.10
2022-09-18T06:08:49.001Z,5.80
2022-09-18T06:11:17.441Z,3.10
2022-09-18T06:13:49.237Z,4.50
2022-09-18T06:16:20.428Z,4.40
2022-09-18T06:18:57.490Z,3.40
2022-09-18T06:21:26.592Z,3.20
2022-09-18T06:23:54.960Z,4.30
2022-09-18T06:26:33.625Z,3.90
2022-09-18T06:29:03.090Z,4.20
2022-09-18T06:31:36.631Z,3.40
2022-09-18T06:34:10.792Z,3.50
2022-09-18T06:36:40.845Z,2.50
2022-09-18T06:39:55.977Z,4.50
2022-09-18T06:42:32.847Z,3.10
2022-09-18T06:45:11.223Z,3.70
2022-09-18T06:47:39.869Z,4.70
2022-09-18T06:50:09.074Z,4.20
2022-09-18T06:52:37.380Z,1.70
2022-09-18T06:55:07.065Z,1.40
2022-09-18T06:57:35.654Z,2.20
2022-09-18T07:00:06.635Z,1.10
2022-09-18T07:02:38.335Z,0.70
2022-09-18T07:05:33.384Z,1.50
2022-09-18T07:08:03.544Z,1.00
2022-09-18T07:10:33.658Z,0.80
2022-09-18T07:13:02.445Z,0.30
2022-09-18T07:15:32.128Z,0.40
2022-09-18T07:18:03.464Z,0.90
2022-09-18T07:20:32.184Z,0.70
2022-09-18T07:23:02.346Z,0.30
2022-09-18T07:25:40.883Z,3.30
2022-09-18T07:28:11.463Z,0.70
2022-09-18T07:30:46.639Z,0.10
2022-09-18T07:33:16.446Z,0.10
2022-09-18T07:35:48.590Z,0.00
2022-09-18T07:38:18.099Z,1.60
2022-09-18T07:40:53.387Z,0.30
2022-09-18T07:43:32.235Z,0.80
2022-09-18T07:46:02.925Z,0.30
2022-09-18T07:48:34.453Z,0.90
2022-09-18T07:51:11.514Z,0.50
2022-09-18T07:53:40.731Z,0.90
2022-09-18T07:56:11.667Z,0.90
2022-09-18T07:58:40.817Z,0.60
2022-09-18T08:01:15.977Z,1.30
2022-09-18T08:03:48.258Z,0.80
2022-09-18T08:06:17.652Z,0.00
2022-09-18T08:09:05.106Z,0.80
2022-09-18T08:12:35.294Z,2.30
2022-09-18T08:15:50.645Z,0.40
2022-09-18T08:19:15.266Z,0.00
2022-09-18T08:22:27.310Z,0.60
2022-09-18T08:24:57.972Z,0.40
2022-09-18T08:27:26.351Z,0.10
2022-09-18T08:29:55.305Z,0.50
2022-09-18T08:32:24.165Z,0.20
2022-09-18T08:34:53.273Z,0.90
2022-09-18T08:37:21.600Z,1.10
2022-09-18T08:40:10.823Z,0.20
2022-09-18T08:43:05.578Z,0.00
2022-09-18T08:46:00.868Z,0.20
2022-09-18T08:48:43.045Z,0.40
2022-09-18T08:51:30.968Z,0.10
2022-09-18T08:54:24.740Z,0.20
2022-09-18T08:57:26.002Z,0.50
2022-09-18T09:00:22.200Z,0.00
2022-09-18T09:03:31.552Z,1.40
2022-09-18T09:08:49.808Z,1.70
2022-09-18T09:11:49.446Z,2.50
2022-09-18T09:14:56.700Z,0.30
2022-09-18T09:17:39.950Z,1.80
2022-09-18T09:20:42.137Z,0.30
2022-09-18T09:23:38.657Z,0.20
2022-09-18T09:26:23.312Z,0.60
2022-09-18T09:29:21.602Z,1.10
2022-09-18T09:32:55.816Z,3.80
2022-09-18T09:36:23.197Z,0.10
2022-09-18T09:39:22.836Z,1.50
2022-09-18T09:41:55.971Z,0.30
2022-09-18T09:44:47.073Z,0.20
2022-09-18T09:47:26.260Z,0.10
2022-09-18T09:50:27.114Z,0.10
2022-09-18T09:53:01.601Z,1.20
2022-09-18T09:56:10.193Z,2.40
2022-09-18T09:59:10.146Z,0.30
2022-09-18T10:02:18.982Z,0.20
2022-09-18T10:05:20.746Z,0.10
2022-09-18T10:07:55.557Z,0.60
2022-09-18T10:10:39.896Z,0.10
2022-09-18T10:13:41.987Z,0.80
2022-09-18T10:16:12.323Z,1.70
2022-09-18T10:18:46.670Z,0.00
2022-09-18T10:21:24.330Z,0.20
2022-09-18T10:24:01.266Z,0.50
2022-09-18T10:26:39.898Z,2.00
2022-09-18T10:29:10.678Z,1.50
2022-09-18T10:31:57.902Z,2.80
2022-09-18T10:34:42.479Z,1.90
2022-09-18T10:37:18.140Z,0.80
2022-09-18T10:39:54.636Z,0.90
2022-09-18T10:42:35.809Z,0.60
2022-09-18T10:45:28.571Z,1.10
2022-09-18T10:48:25.115Z,0.90
2022-09-18T10:51:00.895Z,0.60
2022-09-18T10:53:38.790Z,2.10
2022-09-18T10:56:21.863Z,1.40
2022-09-18T10:58:52.796Z,1.10
2022-09-18T11:01:23.995Z,0.80
2022-09-18T11:04:02.350Z,1.00
2022-09-18T11:06:35.668Z,0.30
2022-09-18T11:09:36.479Z,0.30
2022-09-18T11:12:06.080Z,0.20
2022-09-18T11:14:44.894Z,0.20
2022-09-18T11:17:31.636Z,1.10
2022-09-18T11:20:06.496Z,0.70
2022-09-18T11:23:34.771Z,0.60
2022-09-18T11:26:15.845Z,1.70
2022-09-18T11:28:58.247Z,0.00
2022-09-18T11:31:42.356Z,0.30
2022-09-18T11:34:28.556Z,0.10
2022-09-18T11:37:05.706Z,1.10
2022-09-18T11:39:50.617Z,0.10
2022-09-18T11:42:19.196Z,0.10
2022-09-18T11:44:48.683Z,1.00
2022-09-18T11:47:40.529Z,0.90
2022-09-18T11:50:20.526Z,0.20
2022-09-18T11:53:33.704Z,0.20
2022-09-18T11:56:22.738Z,0.50
2022-09-18T11:59:02.172Z,0.40
2022-09-18T12:01:50.837Z,0.20
2022-09-18T12:04:49.355Z,0.00
2022-09-18T12:07:40.705Z,0.30
2022-09-18T12:11:17.977Z,0.40
2022-09-18T12:14:17.805Z,0.00
2022-09-18T12:17:26.790Z,1.00
2022-09-18T12:20:01.142Z,0.00
2022-09-18T12:22:52.327Z,0.10
2022-09-18T12:25:40.890Z,0.00
2022-09-18T12:28:33.157Z,2.30
2022-09-18T12:31:20.382Z,1.70
2022-09-18T12:34:01.498Z,0.20
2022-09-18T12:37:25.581Z,0.60
2022-09-18T12:40:07.092Z,0.20
2022-09-18T12:43:25.426Z,0.30
2022-09-18T12:46:05.723Z,1.70
2022-09-18T12:49:17.268Z,1.60
2022-09-18T12:52:27.760Z,2.20
2022-09-18T12:55:53.551Z,0.60
2022-09-18T12:58:38.067Z,0.60
2022-09-18T13:01:29.522Z,0.40
2022-09-18T13:04:08.917Z,0.30
2022-09-18T13:06:53.537Z,0.20
2022-09-18T13:09:31.336Z,0.30
2022-09-18T13:12:12.987Z,0.90
2022-09-18T13:14:59.961Z,0.30
2022-09-18T13:17:39.007Z,0.90
2022-09-18T13:20:31.527Z,1.70
2022-09-18T13:23:01.275Z,1.20
2022-09-18T13:25:40.449Z,1.60
2022-09-18T13:28:16.461Z,3.20
2022-09-18T13:30:46.674Z,2.00
2022-09-18T13:33:26.782Z,0.90
2022-09-18T13:35:59.167Z,0.70
2022-09-18T13:38:31.419Z,1.50
2022-09-18T13:41:03.415Z,1.70
2022-09-18T13:43:34.891Z,0.70
2022-09-18T13:46:07.029Z,1.80
2022-09-18T13:48:48.935Z,0.30
2022-09-18T13:51:31.127Z,0.80
2022-09-18T13:54:12.222Z,2.90
2022-09-18T13:57:10.656Z,0.30
2022-09-18T13:59:58.523Z,0.10
2022-09-18T14:02:29.877Z,1.00
2022-09-18T14:05:11.004Z,0.50
2022-09-18T14:07:39.970Z,0.60
2022-09-18T14:10:27.956Z,0.20
2022-09-18T14:13:14.940Z,1.40
2022-09-18T14:16:04.985Z,0.30
2022-09-18T14:18:45.689Z,1.30
2022-09-18T14:21:27.093Z,0.90
2022-09-18T14:24:38.448Z,1.70
2022-09-18T14:28:14.766Z,0.60
2022-09-18T14:31:40.088Z,1.40
2022-09-18T14:34:19.397Z,1.40
2022-09-18T14:36:59.427Z,1.50
2022-09-18T14:39:35.669Z,0.40
2022-09-18T14:42:36.175Z,0.90
2022-09-18T14:45:13.785Z,2.10
2022-09-18T14:47:49.991Z,0.60
2022-09-18T14:50:33.950Z,0.50
2022-09-18T14:53:24.820Z,1.50
2022-09-18T14:55:57.394Z,0.90
2022-09-18T14:58:32.977Z,0.60
2022-09-18T15:01:03.166Z,0.40
2022-09-18T15:03:44.007Z,0.30
2022-09-18T15:06:28.038Z,1.10
2022-09-18T15:08:57.905Z,1.30
2022-09-18T15:11:41.654Z,0.40
2022-09-18T15:14:46.815Z,0.30
2022-09-18T15:17:23.373Z,0.50
2022-09-18T15:20:17.179Z,3.00
2022-09-18T15:22:45.595Z,0.40
2022-09-18T15:25:26.401Z,3.30
2022-09-18T15:27:57.197Z,1.50
2022-09-18T15:30:26.026Z,0.90
2022-09-18T15:33:05.762Z,0.50
2022-09-18T15:35:37.452Z,1.60
2022-09-18T15:38:16.375Z,0.30
2022-09-18T15:40:47.524Z,0.30
2022-09-18T15:43:31.189Z,0.10
2022-09-18T15:46:06.623Z,0.60
2022-09-18T15:48:44.011Z,0.80
2022-09-18T15:51:24.457Z,0.90
2022-09-18T15:54:27.657Z,7.40
2022-09-18T15:56:59.544Z,3.10
2022-09-18T15:59:39.397Z,0.80
2022-09-18T16:02:37.849Z,1.80
2022-09-18T16:05:11.197Z,0.60
2022-09-18T16:07:47.616Z,1.30
2022-09-18T16:10:41.823Z,0.60
2022-09-18T16:13:16.045Z,0.70
2022-09-18T16:15:47.708Z,0.50
2022-09-18T16:18:18.665Z,1.30
2022-09-18T16:20:49.957Z,1.50
2022-09-18T16:23:34.995Z,2.20
2022-09-18T16:26:07.816Z,0.70
2022-09-18T16:28:52.178Z,0.70
2022-09-18T16:31:23.259Z,0.70
2022-09-18T16:34:03.736Z,0.20
2022-09-18T16:36:41.483Z,1.30
2022-09-18T16:39:16.751Z,0.60
2022-09-18T16:41:46.748Z,1.20
2022-09-18T16:44:16.100Z,0.40
2022-09-18T16:47:04.359Z,0.60
2022-09-18T16:49:37.539Z,2.60
2022-09-18T16:52:06.440Z,9.20
2022-09-18T16:54:35.120Z,4.30
2022-09-18T16:57:15.042Z,5.30
2022-09-18T16:59:44.966Z,10.80
2022-09-18T17:02:18.235Z,2.10
2022-09-18T17:04:46.851Z,2.50
2022-09-18T17:07:15.275Z,1.20
2022-09-18T17:09:43.659Z,2.50
2022-09-18T17:12:12.082Z,1.60
2022-09-18T17:14:41.474Z,3.50
2022-09-18T17:17:09.943Z,2.90
2022-09-18T17:19:39.657Z,1.20
2022-09-18T17:22:09.158Z,0.60
2022-09-18T17:24:37.920Z,0.40
2022-09-18T17:27:06.430Z,2.40
2022-09-18T17:29:35.150Z,2.10
2022-09-18T17:32:03.959Z,0.60
2022-09-18T17:34:32.618Z,2.80
2022-09-18T17:37:02.523Z,2.10
2022-09-18T17:39:30.810Z,4.70
2022-09-18T17:41:59.525Z,2.40
2022-09-18T17:44:28.796Z,2.60
2022-09-18T17:46:57.210Z,3.00
2022-09-18T17:49:26.304Z,6.10
2022-09-18T17:51:54.642Z,5.30
2022-09-18T17:54:23.135Z,3.60
2022-09-18T17:56:51.523Z,4.00
2022-09-18T17:59:20.122Z,9.10
2022-09-18T18:01:48.892Z,2.30
2022-09-18T18:04:18.105Z,1.10
2022-09-18T18:06:49.637Z,5.40
2022-09-18T18:09:18.216Z,1.40
2022-09-18T18:11:46.828Z,2.70
2022-09-18T18:14:16.083Z,1.10
2022-09-18T18:16:44.886Z,1.10
2022-09-18T18:19:13.557Z,3.60
2022-09-18T18:21:43.152Z,2.00
2022-09-18T18:24:16.993Z,3.30
2022-09-18T18:26:47.213Z,5.40
2022-09-18T18:29:18.556Z,11.30
2022-09-18T18:31:49.418Z,14.90
2022-09-18T18:34:22.251Z,3.00
2022-09-18T18:36:50.864Z,3.20
2022-09-18T18:39:20.191Z,3.70
2022-09-18T18:41:49.997Z,1.70
2022-09-18T18:44:18.577Z,1.90
2022-09-18T18:46:46.982Z,1.60
2022-09-18T18:49:17.186Z,1.80
2022-09-18T18:51:48.338Z,2.10
2022-09-18T18:54:22.057Z,2.60
2022-09-18T18:56:50.568Z,4.50
2022-09-18T18:59:22.277Z,1.70
2022-09-18T19:01:50.801Z,2.20
2022-09-18T19:04:19.365Z,2.90
2022-09-18T19:06:49.576Z,3.20
2022-09-18T19:09:21.895Z,3.30
2022-09-18T19:11:53.024Z,1.90
2022-09-18T19:14:29.776Z,3.70
2022-09-18T19:16:58.669Z,1.80
2022-09-18T19:19:29.139Z,2.70
2022-09-18T19:22:01.226Z,2.50
2022-09-18T19:24:30.272Z,2.60
2022-09-18T19:26:59.180Z,1.30
2022-09-18T19:29:28.008Z,2.80
2022-09-18T19:31:57.719Z,0.80
2022-09-18T19:34:27.169Z,1.80
2022-09-18T19:36:55.949Z,1.80
2022-09-18T19:39:24.759Z,4.80
2022-09-18T19:42:04.199Z,2.60
2022-09-18T19:44:59.064Z,2.80
2022-09-18T19:47:38.155Z,3.50
2022-09-18T19:50:16.818Z,3.00
2022-09-18T19:52:47.577Z,3.40
2022-09-18T19:55:23.391Z,3.80
2022-09-18T19:57:57.206Z,3.60
2022-09-18T20:00:26.930Z,4.30
2022-09-18T20:02:59.086Z,1.80
2022-09-18T20:07:55.881Z,3.00
2022-09-18T20:10:24.544Z,2.50
2022-09-18T20:12:54.154Z,2.00
2022-09-18T20:15:22.616Z,2.20
2022-09-18T20:17:51.067Z,4.00
2022-09-18T20:20:19.496Z,2.80
2022-09-18T20:22:48.102Z,3.40
2022-09-18T20:25:16.527Z,1.90
2022-09-18T20:27:45.000Z,2.50
2022-09-18T20:30:13.600Z,8.40
2022-09-18T20:32:42.114Z,3.10
2022-09-18T20:35:10.659Z,3.30
2022-09-18T20:37:39.109Z,4.80
2022-09-18T20:40:12.924Z,4.90
2022-09-18T20:42:41.823Z,3.40
2022-09-18T20:45:10.476Z,3.10
2022-09-18T20:47:38.885Z,4.50
2022-09-18T20:50:13.553Z,3.20
2022-09-18T20:52:43.902Z,4.20
2022-09-18T20:55:17.746Z,3.90
2022-09-18T20:57:46.644Z,2.60
2022-09-18T21:00:16.362Z,3.20
2022-09-18T21:02:51.251Z,2.60
2022-09-18T21:05:20.128Z,2.80
2022-09-18T21:07:48.867Z,2.30
2022-09-18T21:10:17.296Z,1.60
2022-09-18T21:12:45.594Z,3.00
2022-09-18T21:15:15.337Z,1.10
2022-09-18T21:17:43.728Z,1.60
2022-09-18T21:20:13.284Z,1.80
2022-09-18T21:23:04.977Z,0.90
2022-09-18T21:25:33.992Z,1.50
2022-09-18T21:28:06.132Z,2.20
2022-09-18T21:30:34.745Z,1.00
2022-09-18T21:33:03.474Z,2.70
2022-09-18T21:35:31.811Z,3.30
2022-09-18T21:38:00.186Z,1.50
2022-09-18T21:40:28.568Z,1.50
2022-09-18T21:42:57.030Z,1.70
2022-09-18T21:45:26.283Z,1.30
2022-09-18T21:47:54.580Z,1.00
2022-09-18T21:50:22.934Z,2.10
2022-09-18T21:52:51.423Z,1.40
2022-09-18T21:55:20.760Z,2.00
2022-09-18T21:57:49.052Z,1.40
2022-09-18T22:00:17.539Z,3.30
2022-09-18T22:02:46.643Z,1.10
2022-09-18T22:05:16.147Z,2.70
2022-09-18T22:07:44.571Z,1.70
2022-09-18T22:10:16.134Z,1.20
2022-09-18T22:12:44.481Z,2.20
2022-09-18T22:15:13.109Z,2.10
2022-09-18T22:17:41.740Z,3.10
2022-09-18T22:20:10.449Z,1.50
2022-09-18T22:22:38.798Z,1.40
2022-09-18T22:25:07.919Z,0.90
2022-09-18T22:27:36.693Z,0.80
2022-09-18T22:30:06.291Z,1.80
2022-09-18T22:32:34.808Z,1.00
2022-09-18T22:35:05.051Z,0.90
2022-09-18T22:37:33.368Z,2.40
2022-09-18T22:40:02.340Z,2.80
2022-09-18T22:42:30.904Z,1.80
2022-09-18T22:44:59.261Z,0.80
2022-09-18T22:47:27.699Z,3.10
2022-09-18T22:49:56.045Z,1.70
2022-09-18T22:52:24.344Z,1.30
2022-09-18T22:54:52.679Z,0.80
2022-09-18T22:57:21.004Z,0.80
2022-09-18T22:59:49.316Z,1.80
2022-09-18T23:02:18.749Z,0.60
2022-09-18T23:04:47.373Z,0.50
2022-09-18T23:07:15.962Z,1.80
2022-09-18T23:09:44.385Z,1.80
2022-09-18T23:12:12.886Z,0.90
2022-09-18T23:14:41.219Z,0.30
2022-09-18T23:17:09.529Z,0.50
2022-09-18T23:19:37.877Z,0.70
2022-09-18T23:22:06.535Z,1.60
2022-09-18T23:24:34.867Z,0.60
2022-09-18T23:27:03.181Z,0.60
2022-09-18T23:29:32.044Z,1.00
2022-09-18T23:32:00.554Z,0.60
2022-09-18T23:34:32.015Z,0.80
2022-09-18T23:37:01.050Z,2.90
2022-09-18T23:39:33.703Z,2.30
2022-09-18T23:42:05.908Z,0.70
2022-09-18T23:44:34.698Z,1.30
2022-09-18T23:47:03.939Z,1.50
2022-09-18T23:49:32.572Z,1.00
2022-09-18T23:52:01.811Z,1.60
2022-09-18T23:54:32.174Z,1.30
2022-09-18T23:57:00.617Z,0.60
2022-09-18T23:59:28.943Z,1.40
